createdAt,value
2023-05-22T00:01:46.812Z,12.00
2023-05-22T00:04:13.701Z,12.00
2023-05-22T00:06:43.902Z,11.90
2023-05-22T00:09:11.088Z,11.90
2023-05-22T00:11:38.037Z,11.90
2023-05-22T00:14:05.572Z,11.80
2023-05-22T00:16:32.419Z,11.80
2023-05-22T00:18:59.237Z,11.80
2023-05-22T00:21:27.861Z,11.80
2023-05-22T00:23:54.603Z,11.80
2023-05-22T00:26:23.351Z,11.80
2023-05-22T00:28:50.171Z,11.80
2023-05-22T00:31:17.000Z,11.70
2023-05-22T00:33:43.843Z,11.70
2023-05-22T00:36:10.838Z,11.60
2023-05-22T00:38:38.171Z,11.60
2023-05-22T00:41:06.018Z,11.60
2023-05-22T00:43:36.133Z,11.60
2023-05-22T00:46:03.618Z,11.60
2023-05-22T00:48:30.945Z,11.50
2023-05-22T00:50:58.040Z,11.50
2023-05-22T00:53:25.045Z,11.50
2023-05-22T00:55:52.323Z,11.40
2023-05-22T00:58:19.193Z,11.40
2023-05-22T01:00:46.774Z,11.40
2023-05-22T01:03:13.985Z,11.40
2023-05-22T01:05:40.870Z,11.40
2023-05-22T01:08:07.959Z,11.40
2023-05-22T01:10:35.143Z,11.40
2023-05-22T01:13:07.284Z,11.40
2023-05-22T01:15:41.071Z,11.30
2023-05-22T01:18:11.183Z,11.30
2023-05-22T01:20:39.332Z,11.30
2023-05-22T01:23:15.191Z,11.30
2023-05-22T01:25:47.629Z,11.30
2023-05-22T01:28:37.904Z,11.30
2023-05-22T01:31:06.588Z,11.30
2023-05-22T01:33:33.962Z,11.30
2023-05-22T01:36:00.762Z,11.30
2023-05-22T01:38:27.710Z,11.40
2023-05-22T01:40:54.470Z,11.40
2023-05-22T01:43:21.408Z,11.40
2023-05-22T01:45:48.155Z,11.40
2023-05-22T01:48:14.935Z,11.40
2023-05-22T01:50:41.844Z,11.50
2023-05-22T01:53:12.710Z,11.50
2023-05-22T01:55:50.494Z,11.50
2023-05-22T01:58:31.896Z,11.60
2023-05-22T02:01:00.947Z,11.60
2023-05-22T02:03:30.131Z,11.60
2023-05-22T02:05:56.977Z,11.60
2023-05-22T02:08:25.059Z,11.70
2023-05-22T02:10:52.407Z,11.70
2023-05-22T02:13:19.217Z,11.70
2023-05-22T02:15:46.533Z,11.70
2023-05-22T02:18:13.386Z,11.70
2023-05-22T02:20:40.604Z,11.80
2023-05-22T02:23:07.543Z,11.80
2023-05-22T02:25:34.323Z,11.70
2023-05-22T02:28:01.043Z,11.80
2023-05-22T02:30:27.928Z,11.80
2023-05-22T02:32:54.722Z,11.80
2023-05-22T02:35:21.496Z,11.80
2023-05-22T02:37:48.233Z,11.90
2023-05-22T02:40:15.718Z,11.80
2023-05-22T02:42:42.539Z,11.90
2023-05-22T02:45:09.768Z,11.90
2023-05-22T02:47:36.515Z,11.90
2023-05-22T02:50:03.764Z,12.00
2023-05-22T02:52:30.963Z,12.00
2023-05-22T02:54:57.667Z,12.00
2023-05-22T02:57:24.401Z,12.00
2023-05-22T02:59:52.711Z,12.00
2023-05-22T03:02:19.882Z,12.10
2023-05-22T03:04:46.902Z,12.10
2023-05-22T03:07:13.692Z,12.10
2023-05-22T03:09:40.492Z,12.10
2023-05-22T03:12:07.452Z,12.10
2023-05-22T03:14:34.306Z,12.10
2023-05-22T03:17:01.048Z,12.10
2023-05-22T03:19:27.790Z,12.20
2023-05-22T03:21:54.508Z,12.20
2023-05-22T03:24:21.732Z,12.20
2023-05-22T03:26:48.545Z,12.20
2023-05-22T03:29:15.588Z,12.20
2023-05-22T03:31:42.363Z,12.20
2023-05-22T03:34:09.235Z,12.20
2023-05-22T03:36:36.090Z,12.20
2023-05-22T03:39:03.332Z,12.20
2023-05-22T03:41:30.142Z,12.20
2023-05-22T03:43:57.526Z,12.20
2023-05-22T03:46:24.336Z,12.10
2023-05-22T03:48:51.159Z,12.10
2023-05-22T03:51:20.135Z,12.10
2023-05-22T03:53:47.109Z,12.10
2023-05-22T03:56:13.886Z,12.10
2023-05-22T03:58:40.924Z,12.00
2023-05-22T04:01:09.895Z,12.00
2023-05-22T04:03:39.650Z,12.00
2023-05-22T04:06:07.536Z,12.00
2023-05-22T04:08:34.767Z,12.00
2023-05-22T04:11:01.537Z,12.10
2023-05-22T04:13:28.696Z,12.10
2023-05-22T04:15:56.908Z,12.10
2023-05-22T04:18:23.668Z,12.00
2023-05-22T04:20:51.862Z,12.00
2023-05-22T04:23:18.684Z,12.00
2023-05-22T04:25:48.164Z,12.00
2023-05-22T04:28:18.293Z,12.00
2023-05-22T04:30:45.752Z,12.00
2023-05-22T04:33:12.950Z,12.00
2023-05-22T04:35:40.855Z,12.00
2023-05-22T04:38:07.708Z,12.00
2023-05-22T04:40:38.463Z,11.90
2023-05-22T04:43:05.597Z,11.90
2023-05-22T04:45:33.037Z,11.90
2023-05-22T04:48:02.643Z,11.90
2023-05-22T04:50:33.011Z,12.00
2023-05-22T04:52:59.923Z,12.10
2023-05-22T04:55:26.565Z,12.20
2023-05-22T04:57:54.156Z,12.20
2023-05-22T05:00:26.465Z,12.30
2023-05-22T05:02:53.835Z,12.30
2023-05-22T05:05:20.705Z,12.30
2023-05-22T05:07:49.822Z,12.30
2023-05-22T05:10:17.156Z,12.30
2023-05-22T05:12:44.043Z,12.40
2023-05-22T05:15:11.460Z,12.50
2023-05-22T05:17:38.690Z,12.40
2023-05-22T05:20:07.788Z,12.50
2023-05-22T05:22:34.532Z,12.50
2023-05-22T05:25:02.073Z,12.50
2023-05-22T05:27:28.828Z,12.50
2023-05-22T05:29:56.238Z,12.60
2023-05-22T05:32:23.163Z,12.60
2023-05-22T05:34:50.398Z,12.60
2023-05-22T05:37:17.575Z,12.60
2023-05-22T05:39:44.278Z,12.70
2023-05-22T05:42:11.578Z,12.80
2023-05-22T05:44:38.859Z,12.80
2023-05-22T05:47:06.539Z,12.80
2023-05-22T05:49:35.657Z,12.80
2023-05-22T05:52:02.930Z,12.90
2023-05-22T05:54:29.889Z,13.00
2023-05-22T05:56:56.730Z,13.10
2023-05-22T05:59:24.505Z,13.20
2023-05-22T06:01:51.654Z,13.30
2023-05-22T06:04:18.761Z,13.30
2023-05-22T06:06:46.108Z,13.30
2023-05-22T06:09:13.328Z,13.20
2023-05-22T06:11:40.730Z,13.20
2023-05-22T06:14:08.955Z,13.20
2023-05-22T06:16:36.752Z,13.30
2023-05-22T06:19:04.988Z,13.40
2023-05-22T06:21:32.363Z,13.40
2023-05-22T06:23:59.174Z,13.30
2023-05-22T06:26:26.256Z,13.30
2023-05-22T06:28:54.633Z,13.40
2023-05-22T06:31:22.696Z,13.50
2023-05-22T06:33:49.937Z,13.70
2023-05-22T06:36:17.618Z,13.80
2023-05-22T06:38:46.399Z,13.90
2023-05-22T06:41:13.357Z,14.00
2023-05-22T06:43:40.054Z,14.00
2023-05-22T06:46:07.318Z,14.10
2023-05-22T06:48:35.154Z,14.10
2023-05-22T06:51:02.065Z,14.30
2023-05-22T06:53:28.893Z,14.30
2023-05-22T06:55:56.079Z,14.30
2023-05-22T06:58:22.891Z,14.20
2023-05-22T07:00:49.761Z,14.10
2023-05-22T07:03:16.674Z,14.10
2023-05-22T07:05:43.584Z,14.10
2023-05-22T07:08:10.575Z,14.10
2023-05-22T07:10:37.755Z,14.20
2023-05-22T07:13:04.718Z,14.30
2023-05-22T07:15:31.581Z,14.30
2023-05-22T07:17:58.513Z,14.30
2023-05-22T07:20:26.358Z,14.30
2023-05-22T07:22:53.201Z,14.40
2023-05-22T07:25:20.064Z,14.50
2023-05-22T07:27:46.957Z,14.60
2023-05-22T07:30:13.860Z,14.70
2023-05-22T07:32:40.771Z,14.70
2023-05-22T07:35:08.210Z,14.80
2023-05-22T07:37:36.261Z,14.90
2023-05-22T07:40:05.381Z,15.00
2023-05-22T07:42:32.355Z,15.00
2023-05-22T07:44:59.182Z,15.00
2023-05-22T07:47:26.205Z,15.10
2023-05-22T07:49:52.982Z,15.10
2023-05-22T07:53:07.925Z,15.10
2023-05-22T07:55:35.043Z,15.10
2023-05-22T07:58:04.592Z,15.10
2023-05-22T08:00:31.408Z,15.30
2023-05-22T08:02:58.402Z,15.30
2023-05-22T08:05:25.347Z,15.40
2023-05-22T08:07:52.421Z,15.50
2023-05-22T08:10:19.426Z,15.70
2023-05-22T08:12:46.204Z,15.80
2023-05-22T08:15:13.486Z,15.70
2023-05-22T08:17:40.287Z,15.60
2023-05-22T08:20:09.494Z,15.70
2023-05-22T08:22:38.439Z,15.70
2023-05-22T08:25:05.566Z,15.70
2023-05-22T08:27:32.417Z,15.60
2023-05-22T08:29:59.419Z,15.70
2023-05-22T08:32:27.289Z,15.80
2023-05-22T08:34:55.313Z,16.00
2023-05-22T08:37:22.045Z,16.00
2023-05-22T08:39:48.966Z,16.10
2023-05-22T08:42:15.823Z,16.20
2023-05-22T08:44:42.689Z,16.40
2023-05-22T08:47:14.266Z,16.70
2023-05-22T08:49:41.497Z,16.50
2023-05-22T08:52:14.989Z,16.50
2023-05-22T08:54:44.860Z,16.40
2023-05-22T08:57:12.166Z,16.30
2023-05-22T08:59:39.871Z,16.20
2023-05-22T09:02:07.069Z,16.10
2023-05-22T09:04:34.920Z,15.90
2023-05-22T09:07:06.005Z,15.80
2023-05-22T09:09:37.139Z,15.80
2023-05-22T09:12:11.719Z,15.80
2023-05-22T09:14:40.440Z,15.90
2023-05-22T09:17:08.534Z,16.00
2023-05-22T09:19:35.479Z,16.10
2023-05-22T09:22:06.898Z,16.10
2023-05-22T09:24:42.498Z,15.90
2023-05-22T09:27:10.412Z,15.90
2023-05-22T09:29:51.270Z,16.00
2023-05-22T09:32:18.721Z,16.00
2023-05-22T09:34:47.077Z,16.10
2023-05-22T09:37:14.404Z,16.10
2023-05-22T09:39:45.091Z,16.10
2023-05-22T09:42:12.916Z,16.30
2023-05-22T09:44:40.042Z,16.20
2023-05-22T09:47:07.388Z,16.30
2023-05-22T09:49:43.923Z,16.40
2023-05-22T09:52:15.186Z,16.40
2023-05-22T09:54:55.472Z,16.20
2023-05-22T09:57:24.237Z,16.00
2023-05-22T09:59:58.713Z,15.90
2023-05-22T10:02:27.328Z,15.80
2023-05-22T10:04:55.059Z,15.80
2023-05-22T10:07:31.140Z,15.70
2023-05-22T10:10:02.324Z,15.70
2023-05-22T10:12:29.359Z,15.70
2023-05-22T10:14:56.232Z,15.60
2023-05-22T10:17:23.317Z,15.50
2023-05-22T10:19:50.289Z,15.40
2023-05-22T10:22:21.146Z,15.40
2023-05-22T10:24:48.591Z,15.40
2023-05-22T10:27:15.688Z,15.60
2023-05-22T10:30:08.883Z,15.70
2023-05-22T10:33:14.940Z,15.90
2023-05-22T10:35:57.349Z,15.90
2023-05-22T10:38:51.107Z,16.00
2023-05-22T10:41:18.716Z,16.20
2023-05-22T10:43:48.757Z,16.30
2023-05-22T10:46:15.860Z,16.50
2023-05-22T10:48:49.409Z,16.90
2023-05-22T10:51:22.842Z,17.40
2023-05-22T10:53:54.596Z,17.50
2023-05-22T10:56:25.158Z,17.70
2023-05-22T10:59:02.763Z,18.00
2023-05-22T11:01:29.802Z,18.40
2023-05-22T11:03:57.659Z,18.70
2023-05-22T11:06:37.005Z,18.60
2023-05-22T11:09:41.399Z,18.30
2023-05-22T11:12:28.545Z,18.00
2023-05-22T11:15:08.084Z,17.90
2023-05-22T11:17:46.396Z,17.80
2023-05-22T11:20:22.879Z,17.90
2023-05-22T11:23:00.932Z,18.10
2023-05-22T11:25:28.394Z,18.10
2023-05-22T11:27:56.523Z,18.20
2023-05-22T11:30:26.858Z,18.10
2023-05-22T11:32:53.792Z,18.10
2023-05-22T11:35:23.918Z,18.30
2023-05-22T11:37:51.751Z,18.40
2023-05-22T11:40:19.709Z,18.40
2023-05-22T11:42:46.816Z,18.40
2023-05-22T11:45:14.082Z,18.10
2023-05-22T11:47:40.955Z,18.00
2023-05-22T11:50:11.753Z,17.60
2023-05-22T11:52:41.189Z,17.50
2023-05-22T11:55:08.688Z,17.40
2023-05-22T11:57:35.879Z,17.20
2023-05-22T12:00:06.282Z,17.00
2023-05-22T12:02:33.323Z,16.90
2023-05-22T12:05:00.336Z,16.90
2023-05-22T12:07:30.315Z,17.10
2023-05-22T12:09:58.346Z,17.20
2023-05-22T12:12:25.346Z,17.30
2023-05-22T12:14:53.418Z,17.20
2023-05-22T12:17:20.449Z,17.10
2023-05-22T12:19:47.933Z,17.00
2023-05-22T12:22:14.911Z,17.00
2023-05-22T12:24:48.163Z,17.00
2023-05-22T12:27:15.118Z,17.10
2023-05-22T12:29:42.662Z,17.10
2023-05-22T12:32:13.501Z,17.20
2023-05-22T12:34:44.740Z,17.20
2023-05-22T12:37:38.041Z,17.30
2023-05-22T12:40:05.298Z,17.40
2023-05-22T12:42:32.081Z,17.50
2023-05-22T12:45:00.713Z,17.40
2023-05-22T12:47:27.597Z,17.30
2023-05-22T12:49:54.529Z,17.30
2023-05-22T12:52:21.295Z,17.20
2023-05-22T12:54:48.082Z,17.30
2023-05-22T12:57:16.826Z,17.20
2023-05-22T12:59:43.843Z,17.30
2023-05-22T13:02:10.759Z,17.40
2023-05-22T13:04:37.564Z,17.40
2023-05-22T13:07:04.554Z,17.40
2023-05-22T13:09:32.624Z,17.40
2023-05-22T13:12:00.138Z,17.50
2023-05-22T13:14:27.230Z,17.70
2023-05-22T13:16:54.348Z,17.80
2023-05-22T13:19:21.229Z,17.80
2023-05-22T13:21:48.064Z,17.60
2023-05-22T13:24:14.878Z,17.30
2023-05-22T13:26:41.881Z,17.20
2023-05-22T13:29:08.717Z,17.10
2023-05-22T13:31:38.001Z,17.10
2023-05-22T13:34:05.222Z,17.10
2023-05-22T13:36:32.323Z,17.10
2023-05-22T13:38:59.243Z,17.10
2023-05-22T13:41:26.135Z,17.20
2023-05-22T13:43:53.136Z,17.20
2023-05-22T13:46:21.373Z,17.20
2023-05-22T13:48:48.228Z,17.20
2023-05-22T13:51:15.139Z,17.30
2023-05-22T13:53:41.982Z,17.20
2023-05-22T13:56:08.793Z,17.40
2023-05-22T13:58:35.707Z,17.50
2023-05-22T14:01:02.562Z,17.60
2023-05-22T14:03:29.590Z,17.70
2023-05-22T14:05:56.575Z,17.90
2023-05-22T14:08:24.155Z,18.00
2023-05-22T14:10:50.932Z,18.20
2023-05-22T14:13:18.037Z,18.10
2023-05-22T14:15:47.075Z,18.10
2023-05-22T14:18:14.559Z,18.30
2023-05-22T14:20:41.539Z,18.70
2023-05-22T14:23:08.555Z,18.90
2023-05-22T14:25:35.545Z,19.30
2023-05-22T14:28:02.387Z,19.80
2023-05-22T14:30:29.165Z,20.10
2023-05-22T14:32:55.946Z,20.10
2023-05-22T14:35:22.798Z,20.30
2023-05-22T14:37:49.550Z,20.40
2023-05-22T14:40:16.360Z,20.50
2023-05-22T14:42:43.281Z,20.70
2023-05-22T14:45:10.381Z,21.10
2023-05-22T14:47:37.239Z,21.30
2023-05-22T14:50:18.154Z,22.10
2023-05-22T14:52:45.637Z,22.80
2023-05-22T14:55:12.392Z,23.20
2023-05-22T14:57:39.375Z,23.80
2023-05-22T15:00:08.719Z,24.20
2023-05-22T15:02:35.912Z,24.30
2023-05-22T15:05:02.777Z,24.20
2023-05-22T15:07:43.308Z,24.10
2023-05-22T15:10:12.278Z,24.20
2023-05-22T15:12:39.102Z,25.00
2023-05-22T15:15:06.387Z,25.00
2023-05-22T15:17:33.281Z,25.30
2023-05-22T15:20:00.117Z,25.30
2023-05-22T15:22:26.921Z,25.30
2023-05-22T15:25:07.734Z,25.40
2023-05-22T15:27:35.216Z,25.70
2023-05-22T15:30:02.683Z,26.20
2023-05-22T15:32:30.874Z,26.30
2023-05-22T15:34:57.719Z,26.30
2023-05-22T15:37:24.473Z,25.80
2023-05-22T15:39:51.211Z,25.70
2023-05-22T15:42:18.024Z,26.10
2023-05-22T15:44:44.853Z,26.40
2023-05-22T15:47:11.664Z,25.70
2023-05-22T15:49:38.351Z,25.60
2023-05-22T15:52:05.312Z,25.30
2023-05-22T15:54:32.097Z,25.30
2023-05-22T15:56:58.813Z,25.10
2023-05-22T15:59:25.566Z,25.20
2023-05-22T16:01:52.355Z,25.30
2023-05-22T16:04:19.212Z,25.80
2023-05-22T16:06:46.071Z,26.50
2023-05-22T16:09:12.853Z,26.30
2023-05-22T16:11:39.568Z,25.80
2023-05-22T16:14:06.514Z,25.90
2023-05-22T16:16:35.920Z,25.40
2023-05-22T16:19:03.075Z,25.40
2023-05-22T16:21:29.826Z,25.50
2023-05-22T16:23:58.238Z,25.50
2023-05-22T16:26:25.276Z,25.00
2023-05-22T16:28:52.065Z,24.90
2023-05-22T16:31:19.877Z,25.00
2023-05-22T16:33:46.762Z,24.60
2023-05-22T16:36:13.604Z,24.70
2023-05-22T16:38:40.346Z,24.40
2023-05-22T16:41:07.076Z,24.50
2023-05-22T16:43:33.825Z,24.60
2023-05-22T16:46:00.620Z,24.50
2023-05-22T16:48:27.451Z,24.70
2023-05-22T16:50:54.295Z,24.50
2023-05-22T16:53:22.665Z,24.50
2023-05-22T16:55:49.406Z,24.20
2023-05-22T16:58:16.154Z,23.90
2023-05-22T17:00:42.981Z,23.50
2023-05-22T17:03:11.708Z,23.20
2023-05-22T17:05:39.121Z,24.00
2023-05-22T17:08:06.562Z,23.90
2023-05-22T17:10:33.314Z,24.10
2023-05-22T17:13:00.070Z,24.40
2023-05-22T17:15:26.871Z,23.20
2023-05-22T17:17:53.784Z,22.90
2023-05-22T17:20:22.974Z,22.90
2023-05-22T17:22:50.054Z,23.00
2023-05-22T17:25:19.249Z,23.30
2023-05-22T17:27:46.525Z,23.50
2023-05-22T17:30:13.429Z,23.70
2023-05-22T17:32:40.232Z,23.40
2023-05-22T17:35:07.317Z,22.90
2023-05-22T17:37:34.318Z,22.50
2023-05-22T17:40:01.132Z,22.00
2023-05-22T17:42:28.152Z,21.70
2023-05-22T17:44:55.003Z,21.50
2023-05-22T17:47:22.035Z,20.90
2023-05-22T17:49:48.891Z,20.60
2023-05-22T17:52:15.740Z,20.20
2023-05-22T17:54:42.543Z,20.30
2023-05-22T17:57:09.414Z,20.90
2023-05-22T17:59:38.453Z,21.40
2023-05-22T18:02:06.857Z,21.40
2023-05-22T18:04:33.691Z,21.20
2023-05-22T18:07:00.519Z,20.80
2023-05-22T18:09:27.481Z,20.70
2023-05-22T18:11:54.451Z,20.50
2023-05-22T18:14:21.205Z,20.40
2023-05-22T18:16:51.020Z,20.10
2023-05-22T18:19:17.901Z,19.80
2023-05-22T18:21:44.699Z,19.60
2023-05-22T18:24:13.097Z,19.50
2023-05-22T18:26:39.802Z,19.40
2023-05-22T18:29:06.688Z,19.30
2023-05-22T18:31:33.549Z,19.20
2023-05-22T18:34:00.573Z,19.20
2023-05-22T18:36:27.462Z,19.20
2023-05-22T18:38:54.223Z,19.00
2023-05-22T18:41:21.987Z,18.80
2023-05-22T18:43:48.872Z,18.50
2023-05-22T18:46:15.744Z,18.40
2023-05-22T18:48:42.577Z,18.30
2023-05-22T18:51:09.431Z,18.20
2023-05-22T18:53:36.313Z,18.00
2023-05-22T18:56:03.253Z,17.80
2023-05-22T18:58:30.087Z,17.80
2023-05-22T19:00:56.986Z,17.70
2023-05-22T19:03:23.793Z,17.70
2023-05-22T19:05:50.714Z,17.60
2023-05-22T19:08:17.727Z,17.50
2023-05-22T19:10:44.608Z,17.30
2023-05-22T19:13:11.444Z,17.20
2023-05-22T19:15:38.508Z,17.10
2023-05-22T19:18:05.454Z,16.80
2023-05-22T19:20:32.644Z,16.70
2023-05-22T19:22:59.441Z,16.60
2023-05-22T19:25:26.217Z,16.60
2023-05-22T19:27:53.030Z,16.50
2023-05-22T19:30:21.857Z,16.40
2023-05-22T19:32:55.651Z,16.30
2023-05-22T19:35:22.780Z,16.30
2023-05-22T19:37:50.218Z,16.20
2023-05-22T19:40:17.129Z,16.10
2023-05-22T19:42:44.155Z,16.00
2023-05-22T19:45:11.220Z,15.90
2023-05-22T19:47:38.065Z,15.80
2023-05-22T19:50:05.439Z,15.70
2023-05-22T19:52:33.239Z,15.60
2023-05-22T19:55:00.208Z,15.50
2023-05-22T19:57:27.264Z,15.50
2023-05-22T19:59:55.845Z,15.40
2023-05-22T20:02:22.928Z,15.40
2023-05-22T20:04:49.836Z,15.30
2023-05-22T20:07:17.019Z,15.20
2023-05-22T20:09:43.930Z,15.20
2023-05-22T20:12:11.219Z,15.10
2023-05-22T20:14:39.439Z,15.00
2023-05-22T20:17:07.591Z,15.00
2023-05-22T20:19:35.784Z,14.90
2023-05-22T20:22:05.249Z,14.80
2023-05-22T20:24:33.532Z,14.80
2023-05-22T20:27:03.346Z,14.70
2023-05-22T20:29:31.233Z,14.70
2023-05-22T20:31:58.525Z,14.60
2023-05-22T20:34:26.844Z,14.60
2023-05-22T20:36:54.511Z,14.50
2023-05-22T20:39:22.411Z,14.50
2023-05-22T20:41:52.310Z,14.40
2023-05-22T20:44:21.961Z,14.40
2023-05-22T20:46:49.085Z,14.30
2023-05-22T20:49:21.233Z,14.30
2023-05-22T20:51:54.199Z,14.20
2023-05-22T20:54:21.538Z,14.20
2023-05-22T20:56:48.695Z,14.10
2023-05-22T20:59:15.956Z,14.10
2023-05-22T21:01:43.190Z,14.00
2023-05-22T21:04:10.329Z,14.00
2023-05-22T21:06:37.623Z,14.00
2023-05-22T21:09:04.457Z,14.00
2023-05-22T21:11:31.268Z,13.90
2023-05-22T21:13:58.069Z,13.90
2023-05-22T21:16:24.948Z,13.80
2023-05-22T21:18:51.758Z,13.70
2023-05-22T21:21:20.180Z,13.70
2023-05-22T21:23:48.027Z,13.70
2023-05-22T21:26:14.957Z,13.60
2023-05-22T21:28:42.810Z,13.60
2023-05-22T21:31:09.662Z,13.50
2023-05-22T21:33:36.437Z,13.50
2023-05-22T21:36:03.390Z,13.40
2023-05-22T21:38:30.595Z,13.40
2023-05-22T21:40:57.474Z,13.30
2023-05-22T21:43:24.513Z,13.30
2023-05-22T21:45:51.335Z,13.20
2023-05-22T21:48:18.048Z,13.20
2023-05-22T21:50:44.891Z,13.10
2023-05-22T21:53:12.508Z,13.10
2023-05-22T21:55:39.337Z,13.00
2023-05-22T21:58:06.032Z,12.90
2023-05-22T22:00:32.806Z,12.90
2023-05-22T22:02:59.633Z,12.80
2023-05-22T22:05:27.632Z,12.80
2023-05-22T22:07:54.391Z,12.80
2023-05-22T22:10:21.360Z,12.80
2023-05-22T22:12:48.407Z,12.70
2023-05-22T22:15:15.211Z,12.70
2023-05-22T22:17:42.163Z,12.60
2023-05-22T22:20:09.433Z,12.60
2023-05-22T22:22:36.266Z,12.60
2023-05-22T22:25:03.150Z,12.60
2023-05-22T22:27:29.899Z,12.50
2023-05-22T22:29:56.719Z,12.50
2023-05-22T22:32:23.606Z,12.50
2023-05-22T22:34:53.792Z,12.50
2023-05-22T22:37:21.640Z,12.50
2023-05-22T22:39:48.434Z,12.40
2023-05-22T22:42:15.279Z,12.40
2023-05-22T22:44:43.136Z,12.30
2023-05-22T22:47:10.334Z,12.20
2023-05-22T22:49:37.398Z,12.20
2023-05-22T22:52:04.692Z,12.20
2023-05-22T22:54:31.702Z,12.10
2023-05-22T22:56:58.677Z,12.10
2023-05-22T22:59:25.597Z,12.10
2023-05-22T23:01:52.432Z,12.00
2023-05-22T23:04:19.326Z,12.00
2023-05-22T23:06:46.172Z,12.00
2023-05-22T23:09:13.322Z,11.90
2023-05-22T23:11:40.088Z,11.80
2023-05-22T23:14:08.340Z,11.80
2023-05-22T23:16:36.324Z,11.80
2023-05-22T23:19:06.769Z,11.80
2023-05-22T23:21:33.767Z,11.70
2023-05-22T23:24:01.180Z,11.70
2023-05-22T23:26:28.292Z,11.70
2023-05-22T23:28:55.647Z,11.70
2023-05-22T23:31:26.264Z,11.60
2023-05-22T23:33:53.249Z,11.60
2023-05-22T23:36:20.104Z,11.60
2023-05-22T23:38:47.453Z,11.50
2023-05-22T23:41:15.044Z,11.50
2023-05-22T23:43:42.300Z,11.40
2023-05-22T23:46:09.418Z,11.40
2023-05-22T23:48:36.600Z,11.40
2023-05-22T23:51:05.206Z,11.30
2023-05-22T23:53:32.054Z,11.30
2023-05-22T23:55:59.208Z,11.30
2023-05-22T23:58:26.060Z,11.30
